• Join FlightAware (Why Join?)
  • Login
  • US Flag 
08:09PM EDT


 

Airport Tracker/Info


-or-


 

Live Flight TrackerFlight Track Log ✈ N682RW ✈ 01-Sep-2013 ✈ KDTW - KBOS

Flight Track Log - Related Links

Times and Time Zones

All times are in EDT time to prevent confusion due to time zone crossing. See the N682RW flight status page for this flight to view local times or setup timezone preferences in your user account.

Time Position Orientation Groundspeed Altitude Reporting Facility
EDT Latitude Longitude Course Direction KTS MPH feet Rate Location/Type
06:31PM 42.1869 -83.3575 181° South 180 207 1,300  Level Cleveland Center
06:32PM 42.1139 -83.3600 181° South 243 280 3,500 1,920 Climbing Cleveland Center
06:33PM 42.0389 -83.3594 180° South 287 330 5,700 2,220 Climbing Cleveland Center
06:34PM 41.9950 -83.2764 125° Southeast 305 351 8,100 1,860 Climbing Cleveland Center
06:35PM 42.0375 -83.1553 65° Northeast 331 381 9,900 840 Climbing Cleveland Center
06:36PM 42.0961 -83.0486 53° Northeast 331 381 10,000 900 Climbing Cleveland Center
06:37PM 42.1486 -82.9300 59° Northeast 342 394 11,800 1,980 Climbing Cleveland Center
06:38PM 42.2031 -82.8117 58° Northeast 355 409 14,000 2,040 Climbing Cleveland Center
06:39PM 42.2225 -82.6692 80° East 367 422 15,900 1,980 Climbing Cleveland Center
06:40PM 42.2125 -82.5147 95° East 383 441 18,000 1,860 Climbing Cleveland Center
06:41PM 42.2131 -82.3578 90° East 396 456 19,700 1,500 Climbing Cleveland Center
06:42PM 42.2133 -82.1894 90° East 421 484 21,100 1,380 Climbing Cleveland Center
06:43PM 42.2156 -82.0186 89° East 449 517 22,500 1,320 Climbing Cleveland Center
06:44PM 42.2175 -81.8617 89° East 460 529 23,800 1,260 Climbing Cleveland Center
06:45PM 42.2172 -81.6850 90° East 466 536 25,100 1,260 Climbing Cleveland Center
06:46PM 42.2167 -81.5056 90° East 476 548 26,400 1,140 Climbing Cleveland Center
06:47PM 42.2161 -81.3233 90° East 476 548 27,400 1,020 Climbing Cleveland Center
06:48PM 42.2172 -81.1356 89° East 487 560 28,500 900 Climbing Cleveland Center
06:49PM 42.2283 -80.9308 86° East 493 567 29,300 840 Climbing Cleveland Center
06:50PM 42.2517 -80.7431 80° East 503 579 30,200 1,440 Climbing Cleveland Center
06:51PM 42.2706 -80.5581 82° East 503 579 32,200 1,200 Climbing Cleveland Center
06:52PM 42.2892 -80.3728 82° East 488 562 32,700 360 Climbing Cleveland Center
06:53PM 42.3075 -80.1958 82° East 480 552 33,000 120 Climbing Cleveland Center
06:54PM 42.3256 -80.0186 82° East 480 552 33,000  Level Cleveland Center
06:55PM 42.3622 -79.8639 72° East 480 552 33,000  Level Cleveland Center
06:56PM 42.4067 -79.6919 71° East 480 552 33,000  Level Cleveland Center
06:57PM 42.4492 -79.5225 71° East 480 552 33,000  Level Cleveland Center
06:58PM 42.4994 -79.3497 68° East 485 558 33,000  Level Cleveland Center
06:59PM 42.5392 -79.1800 72° East 485 558 33,000  Level Cleveland Center
07:00PM 42.5642 -79.0017 79° East 480 552 33,000  Level Cleveland Center
07:01PM 42.5886 -78.8292 79° East 472 543 33,000  Level Cleveland Center
07:02PM 42.6089 -78.6564 81° East 466 536 33,000  Level Cleveland Center
07:03PM 42.6203 -78.4756 85° East 471 542 33,000  Level Cleveland Center
07:04PM 42.6292 -78.2944 86° East 477 549 33,000  Level Cleveland Center
07:05PM 42.6400 -78.1106 85° East 482 555 33,000  Level Cleveland Center
07:06PM 42.6464 -77.9242 87° East 487 560 33,000  Level Cleveland Center
07:07PM 42.6497 -77.7178 89° East 492 566 33,000 -60 Level Cleveland Center
07:08PM 42.6575 -77.5339 87° East 497 572 32,900  Descending Cleveland Center
07:09PM 42.6650 -77.3444 87° East 497 572 33,000  Climbing Cleveland Center
07:11PM 42.6828 -76.9825 86° East 493 567 33,000  Level Boston Center
07:12PM 42.6939 -76.8053 85° East 483 556 33,000  Level Boston Center
07:13PM 42.7050 -76.6167 85° East 483 556 33,000  Level Boston Center
07:14PM 42.7178 -76.4367 84° East 483 556 33,000  Level Boston Center
07:15PM 42.7303 -76.2536 85° East 483 556 33,000 -60 Level Boston Center
07:16PM 42.7425 -76.0733 85° East 483 556 32,900 -60 Descending Boston Center
07:17PM 42.7567 -75.8875 84° East 478 550 32,900 -240 Level Boston Center
07:18PM 42.7703 -75.7042 84° East 478 550 32,500 -660 Descending Boston Center
07:19PM 42.7708 -75.5403 90° East 478 550 31,600 -780 Descending Boston Center
07:20PM 42.7694 -75.3533 91° East 478 550 31,000 -360 Descending Boston Center
07:21PM 42.7678 -75.1694 91° East 478 550 30,900  Descending Boston Center
07:22PM 42.7661 -74.9769 91° East 489 563 31,000  Climbing Boston Center
07:23PM 42.7636 -74.7931 91° East 489 563 31,000  Level Boston Center
07:24PM 42.7611 -74.6064 91° East 495 570 31,000  Level Boston Center
07:25PM 42.7583 -74.4139 91° East 501 577 31,000  Level Boston Center
07:26PM 42.7553 -74.2328 91° East 494 568 31,000 -60 Level Boston Center
07:27PM 42.7539 -74.0461 91° East 489 563 30,900  Descending Boston Center
07:28PM 42.7478 -73.8650 93° East 484 557 31,000  Climbing Boston Center
07:29PM 42.7375 -73.6867 94° East 478 550 31,000  Level Boston Center
07:30PM 42.7183 -73.5056 98° East 478 550 31,000  Level Boston Center
07:31PM 42.6992 -73.3214 98° East 484 557 31,000 -120 Level Boston Center
07:32PM 42.6797 -73.1378 98° East 484 557 30,800 -1,260 Descending Boston Center
07:33PM 42.6556 -72.9342 99° East 489 563 28,500 -2,280 Descending Boston Center
07:34PM 42.6356 -72.7589 99° East 483 556 26,200 -2,220 Descending Boston Center
07:35PM 42.6211 -72.6150 98° East 466 536 24,100 -2,340 Descending Boston Center
07:36PM 42.6047 -72.4258 97° East 448 516 21,700 -2,220 Descending Boston Center
07:37PM 42.5900 -72.3019 99° East 439 505 19,700 -2,220 Descending Boston Center
07:38PM 42.5689 -72.1414 100° East 407 468 17,300 -2,340 Descending Boston Center
07:39PM 42.5517 -71.9806 98° East 390 449 15,100 -2,100 Descending Boston Center
07:40PM 42.5364 -71.8542 99° East 385 443 13,100 -2,100 Descending Boston Center
07:41PM 42.5169 -71.7050 100° East 375 432 11,000 -1,140 Descending Boston Center
07:42PM 42.5000 -71.5667 99° East 365 420 11,000  Level KA90
07:43PM 42.4833 -71.4333 100° East 366 421 11,000 -240 Level KA90
07:44PM 42.4833 -71.3000 90° East 314 361 10,500 -960 Descending KA90
07:45PM 42.4667 -71.1667 100° East 299 344 9,000 -1,320 Descending KA90
07:46PM 42.4500 -71.1000 109° East 290 334 8,200 -960 Descending KA90
07:47PM 42.4500 -71.0000 90° East 270 311 7,400 -1,080 Descending KA90
07:48PM 42.4667 -70.9167 75° East 245 282 6,100 -1,440 Descending KA90
07:49PM 42.4833 -70.8167 77° East 244 281 4,600 -1,140 Descending KA90
07:50PM 42.5000 -70.7333 75° East 227 261 3,900 -840 Descending KA90
07:51PM 42.4500 -70.7000 154° Southeast 195 224 3,000 -480 Descending KA90
07:52PM 42.4125 -70.7331 213° Southwest 112 129 2,900 -180 Descending Boston Center
07:53PM 42.3947 -70.7928 248° West 117 135 2,700 -540 Descending Boston Center
07:54PM 42.3853 -70.8575 259° West 149 171 1,900 -960 Descending Boston Center
07:55PM 42.3833 -70.9000 266° West 160 184 1,100 -780 Descending KA90
07:56PM 42.3667 -70.9500 246° West 131 151 500 -600 Descending KA90